Pagina principală
METAR-TAF:

METAR-TAF

Aeroporturi :

Fort Worth, Texas, Statele Unite ale Americii

Latitudine: 32-58-24N, longitudine: 097-19-05W, elevație: 220 m

Observații meteo curente

Raportul a fost făcut în urmă cu 28 de minute, la 20:53 UTC
Vânt 8 kt de la Sud-vest cu rafale de până la 16 kt
Temperatură 34°C
Umiditate 41%
Presiune 1015 hPa
Vizibilitate: 16.1 km
Nori puțini la o înălțime de 6000 picior

METAR: KAFW 222053Z 23008G16KT 10SM FEW060 34/19 A2998 RMK AO2 SLP135 T03440194 56022

Ora: 16:21 (21:21 UTC)

Prognoză

Raportul a fost făcut în urmă cu 21 de minute, la 21:00 UTC
Prognoză valabilă de la 22 ora 21 UTC la 23 ora 18 UTC
Vânt 11 kt de la Sud/Sud-vest
Vizibilitate: 10 km
Nori împrăștiați la o înălțime de 6000 picior
De la 23 ora 0000 UTC
Vânt 7 kt de la Sud
Vizibilitate: 10 km
Cer senin

TAF: KAFW 222100Z 2221/2318 20011KT P6SM SCT060 FM230000 17007KT P6SM SKC

Observații și prognoze meteo pentru peste 4.000 de aeroporturi (rapoarte METAR și TAF).

Stațiile disponibile sunt reprezentate pe hartă prin puncte galbene și roșii.

Țineți indicatorul mouse-ului pe punctul dorit pentru a vedea denumirea stației.

Apoi, faceți clic pentru a vedea observațiile și prognozele meteorologice.

Pentru a schimba harta: Pentru mărire, faceți clic pe butoanele verzi cu cruce neagră; pentru micșorare, pe butonul verde cu o liniuță; pentru hărți învecinate, pe săgețile verzi.


METAR-TAF: